createdAt,value
2018-02-23T00:01:15.520Z,40.20
2018-02-23T00:03:44.273Z,38.60
2018-02-23T00:06:13.044Z,35.40
2018-02-23T00:08:41.810Z,36.95
2018-02-23T00:11:10.587Z,45.80
2018-02-23T00:13:39.356Z,36.60
2018-02-23T00:16:08.879Z,42.30
2018-02-23T00:18:37.634Z,41.28
2018-02-23T00:21:07.165Z,49.40
2018-02-23T00:23:35.932Z,45.15
2018-02-23T00:26:05.457Z,42.20
2018-02-23T00:28:34.219Z,47.78
2018-02-23T00:31:02.972Z,37.58
2018-02-23T00:33:31.742Z,41.35
2018-02-23T00:36:00.509Z,41.03
2018-02-23T00:38:29.285Z,37.83
2018-02-23T00:40:58.060Z,40.38
2018-02-23T00:43:27.895Z,43.47
2018-02-23T00:45:56.899Z,40.45
2018-02-23T00:48:25.666Z,40.75
2018-02-23T00:51:01.163Z,39.30
2018-02-23T00:53:29.949Z,45.20
2018-02-23T00:55:58.718Z,46.28
2018-02-23T00:58:27.783Z,45.78
2018-02-23T01:00:56.541Z,37.08
2018-02-23T01:03:25.307Z,43.78
2018-02-23T01:05:54.066Z,40.10
2018-02-23T01:08:23.599Z,41.42
2018-02-23T01:10:52.029Z,44.78
2018-02-23T01:13:20.797Z,41.95
2018-02-23T01:15:49.566Z,45.55
2018-02-23T01:18:18.331Z,43.03
2018-02-23T01:20:47.094Z,45.15
2018-02-23T01:23:16.620Z,46.00
2018-02-23T01:25:45.379Z,44.78
2018-02-23T01:28:21.469Z,44.80
2018-02-23T01:30:51.004Z,41.30
2018-02-23T01:33:19.431Z,49.13
2018-02-23T01:35:48.184Z,45.95
2018-02-23T01:38:16.944Z,49.15
2018-02-23T03:05:43.960Z,56.08
2018-02-23T03:08:12.717Z,55.17
2018-02-23T03:10:41.499Z,48.45
2018-02-23T03:13:10.261Z,47.33
2018-02-23T03:15:39.041Z,50.28
2018-02-23T03:18:07.468Z,53.25
2018-02-23T03:20:36.229Z,50.75
2018-02-23T03:23:05.747Z,52.10
2018-02-23T03:25:34.513Z,49.25
2018-02-23T03:28:03.280Z,49.83
2018-02-23T03:30:32.821Z,45.03
2018-02-23T03:33:01.586Z,47.95
2018-02-23T03:35:31.126Z,51.45
2018-02-23T03:37:59.883Z,50.47
2018-02-23T03:40:28.648Z,44.67
2018-02-23T03:42:57.416Z,46.30
2018-02-23T03:45:26.179Z,47.15
2018-02-23T03:47:54.945Z,52.70
2018-02-23T03:50:23.722Z,45.10
2018-02-23T03:52:53.249Z,47.30
2018-02-23T03:55:22.005Z,50.97
2018-02-23T03:57:51.533Z,48.83
2018-02-23T04:00:20.291Z,52.47
2018-02-23T04:02:49.049Z,45.97
2018-02-23T04:05:17.829Z,50.45
2018-02-23T04:07:46.584Z,50.30
2018-02-23T04:10:15.360Z,47.58
2018-02-23T04:12:44.878Z,54.85
2018-02-23T04:15:13.640Z,51.15
2018-02-23T04:17:42.410Z,50.10
2018-02-23T04:20:11.181Z,46.20
2018-02-23T04:22:39.949Z,46.95
2018-02-23T04:25:08.713Z,48.35
2018-02-23T04:27:38.248Z,47.03
2018-02-23T04:30:07.008Z,45.83
2018-02-23T04:32:36.211Z,48.35
2018-02-23T04:35:05.732Z,55.38
2018-02-23T04:37:34.509Z,53.38
2018-02-23T04:40:03.883Z,55.10
2018-02-23T04:42:32.643Z,47.22
2018-02-23T04:45:01.407Z,54.63
2018-02-23T04:47:30.160Z,50.97
2018-02-23T04:49:59.683Z,51.45
2018-02-23T04:52:29.220Z,49.90
2018-02-23T04:54:57.967Z,51.92
2018-02-23T04:57:27.497Z,45.15
2018-02-23T04:59:56.266Z,48.15
2018-02-23T05:02:25.823Z,49.30
2018-02-23T05:04:54.585Z,49.38
2018-02-23T05:07:23.352Z,46.60
2018-02-23T05:09:52.884Z,47.05
2018-02-23T05:12:21.636Z,53.50
2018-02-23T05:14:50.397Z,52.45
2018-02-23T05:17:19.149Z,61.25
2018-02-23T05:19:47.920Z,53.78
2018-02-23T05:22:17.251Z,52.28
2018-02-23T05:24:45.832Z,51.85
2018-02-23T05:27:14.588Z,58.47
2018-02-23T05:29:44.121Z,46.65
2018-02-23T05:32:12.695Z,50.97
2018-02-23T05:34:41.456Z,61.85
2018-02-23T05:37:10.982Z,48.28
2018-02-23T05:39:40.499Z,45.28
2018-02-23T05:42:09.263Z,52.97
2018-02-23T05:44:39.327Z,51.20
2018-02-23T05:47:08.097Z,50.28
2018-02-23T05:49:36.851Z,46.80
2018-02-23T05:52:05.619Z,45.75
2018-02-23T05:54:34.380Z,52.65
2018-02-23T05:57:02.950Z,50.85
2018-02-23T05:59:31.707Z,48.38
2018-02-23T06:02:01.232Z,45.90
2018-02-23T06:04:29.991Z,47.50
2018-02-23T06:06:59.303Z,54.33
2018-02-23T06:09:28.824Z,44.92
2018-02-23T06:11:58.348Z,56.58
2018-02-23T06:14:27.120Z,45.90
2018-02-23T06:16:56.316Z,49.15
2018-02-23T06:19:31.309Z,49.92
2018-02-23T06:22:00.261Z,53.53
2018-02-23T06:24:29.060Z,53.33
2018-02-23T06:26:57.819Z,51.85
2018-02-23T06:29:27.356Z,47.20
2018-02-23T06:31:55.931Z,45.72
2018-02-23T06:34:24.687Z,51.90
2018-02-23T06:36:54.251Z,48.15
2018-02-23T06:39:23.016Z,49.90
2018-02-23T07:57:50.034Z,36.88
2018-02-23T08:00:19.204Z,60.22
2018-02-23T08:02:48.762Z,50.90
2018-02-23T08:05:17.349Z,48.10
2018-02-23T08:07:46.115Z,52.45
2018-02-23T08:10:14.892Z,51.85
2018-02-23T08:12:43.656Z,53.33
2018-02-23T08:15:12.240Z,49.50
2018-02-23T08:17:41.005Z,53.03
2018-02-23T08:20:09.810Z,54.42
2018-02-23T08:22:38.594Z,48.83
2018-02-23T08:25:08.120Z,53.17
2018-02-23T08:27:36.900Z,50.50
2018-02-23T08:30:05.685Z,57.08
2018-02-23T08:32:35.208Z,55.28
2018-02-23T08:35:03.979Z,55.90
2018-02-23T08:37:33.511Z,54.78
2018-02-23T08:40:02.274Z,49.55
2018-02-23T08:42:31.812Z,55.17
2018-02-23T08:45:00.576Z,53.90
2018-02-23T08:47:29.381Z,52.53
2018-02-23T08:49:58.148Z,56.40
2018-02-23T08:52:27.677Z,54.88
2018-02-23T08:54:56.444Z,59.58
2018-02-23T08:57:25.224Z,48.53
2018-02-23T08:59:54.756Z,57.92
2018-02-23T09:02:23.529Z,54.47
2018-02-23T09:04:52.289Z,52.58
2018-02-23T09:07:21.057Z,57.45
2018-02-23T09:09:49.824Z,53.00
2018-02-23T09:12:18.583Z,50.25
2018-02-23T09:14:47.340Z,53.15
2018-02-23T09:17:16.095Z,41.85
2018-02-23T09:19:44.848Z,56.83
2018-02-23T09:22:13.612Z,47.67
2018-02-23T09:24:43.151Z,48.50
2018-02-23T09:27:11.930Z,45.67
2018-02-23T09:29:40.697Z,47.60
2018-02-23T09:32:21.386Z,48.20
2018-02-23T09:34:50.904Z,59.38
2018-02-23T09:37:19.668Z,45.90
2018-02-23T09:39:50.124Z,48.85
2018-02-23T09:42:18.905Z,43.97
2018-02-23T09:44:47.660Z,42.42
2018-02-23T09:47:16.423Z,43.47
2018-02-23T09:49:45.197Z,44.90
2018-02-23T09:52:13.973Z,46.88
2018-02-23T09:54:42.736Z,44.42
2018-02-23T09:57:12.099Z,49.63
2018-02-23T09:59:41.220Z,44.67
2018-02-23T10:02:09.979Z,42.33
2018-02-23T10:04:38.740Z,42.65
2018-02-23T10:07:07.499Z,48.42
2018-02-23T10:09:36.252Z,49.40
2018-02-23T10:12:04.991Z,38.03
2018-02-23T10:14:33.750Z,39.92
2018-02-23T10:17:02.514Z,42.25
2018-02-23T10:19:31.304Z,38.75
2018-02-23T10:22:00.060Z,47.00
2018-02-23T10:24:28.831Z,37.65
2018-02-23T10:26:58.132Z,42.03
2018-02-23T10:29:27.672Z,37.72
2018-02-23T10:32:01.744Z,35.85
2018-02-23T10:34:30.340Z,35.28
2018-02-23T10:36:59.883Z,29.85
2018-02-23T10:39:28.447Z,28.67
2018-02-23T10:41:57.020Z,44.92
2018-02-23T10:44:26.493Z,44.08
2018-02-23T10:46:55.255Z,31.20
2018-02-23T10:49:23.835Z,30.70
2018-02-23T10:51:52.425Z,32.40
2018-02-23T10:54:21.045Z,33.72
2018-02-23T10:56:50.583Z,30.20
2018-02-23T10:59:19.164Z,33.78
2018-02-23T11:01:47.742Z,31.87
2018-02-23T11:04:17.075Z,37.85
2018-02-23T11:06:45.679Z,33.22
2018-02-23T11:09:14.452Z,48.15
2018-02-23T11:11:43.212Z,40.10
2018-02-23T11:14:11.963Z,39.38
2018-02-23T11:16:40.729Z,35.90
2018-02-23T11:19:09.161Z,44.53
2018-02-23T11:21:37.937Z,31.25
2018-02-23T11:24:07.462Z,29.15
2018-02-23T11:26:36.057Z,31.65
2018-02-23T11:29:05.447Z,26.37
2018-02-23T11:31:34.238Z,33.53
2018-02-23T11:34:03.764Z,24.20
2018-02-23T11:36:32.560Z,29.50
2018-02-23T11:39:05.489Z,29.90
2018-02-23T11:41:34.248Z,24.70
2018-02-23T11:44:03.016Z,25.42
2018-02-23T11:46:31.785Z,26.42
2018-02-23T11:49:01.315Z,26.77
2018-02-23T11:51:30.074Z,25.30
2018-02-23T11:53:59.443Z,32.55
2018-02-23T11:56:28.205Z,25.75
2018-02-23T11:58:56.973Z,29.92
2018-02-23T12:01:25.750Z,31.55
2018-02-23T12:03:54.514Z,29.98
2018-02-23T12:06:23.280Z,26.10
2018-02-23T12:08:52.027Z,25.40
2018-02-23T12:11:21.026Z,29.48
2018-02-23T12:13:49.793Z,31.02
2018-02-23T12:16:19.147Z,30.73
2018-02-23T12:18:47.911Z,32.85
2018-02-23T12:21:16.690Z,27.23
2018-02-23T12:23:45.456Z,23.90
2018-02-23T12:26:14.989Z,28.90
2018-02-23T12:28:43.766Z,28.62
2018-02-23T12:31:12.530Z,33.47
2018-02-23T12:33:42.458Z,27.92
2018-02-23T12:36:12.250Z,28.05
2018-02-23T12:38:41.011Z,32.20
2018-02-23T12:41:09.780Z,34.60
2018-02-23T12:43:38.531Z,25.15
2018-02-23T12:46:07.403Z,30.58
2018-02-23T12:48:36.163Z,28.02
2018-02-23T12:51:05.377Z,25.73
2018-02-23T12:53:34.143Z,29.95
2018-02-23T12:56:02.898Z,27.87
2018-02-23T12:58:32.434Z,33.53
2018-02-23T13:01:01.214Z,24.17
2018-02-23T13:03:29.988Z,31.77
2018-02-23T13:05:58.763Z,26.73
2018-02-23T13:08:28.287Z,32.53
2018-02-23T13:10:57.043Z,25.77
2018-02-23T13:13:25.813Z,27.13
2018-02-23T13:15:54.856Z,25.62
2018-02-23T13:18:24.531Z,28.42
2018-02-23T13:20:53.297Z,27.20
2018-02-23T13:23:22.303Z,30.30
2018-02-23T13:25:51.073Z,30.73
2018-02-23T13:28:25.381Z,26.37
2018-02-23T13:30:54.404Z,30.75
2018-02-23T13:33:23.774Z,28.77
2018-02-23T13:35:53.128Z,27.15
2018-02-23T13:38:22.473Z,29.70
2018-02-23T13:40:56.671Z,32.97
2018-02-23T13:43:26.230Z,28.10
2018-02-23T13:45:54.804Z,32.90
2018-02-23T13:48:23.992Z,31.35
2018-02-23T13:50:54.023Z,32.80
2018-02-23T13:53:22.613Z,27.55
2018-02-23T13:55:51.406Z,34.53
2018-02-23T13:58:20.180Z,30.02
2018-02-23T14:00:49.723Z,32.97
2018-02-23T14:03:19.263Z,30.65
2018-02-23T14:05:48.044Z,28.67
2018-02-23T14:08:16.809Z,36.25
2018-02-23T14:10:46.351Z,34.85
2018-02-23T14:13:15.130Z,33.45
2018-02-23T14:15:43.904Z,29.92
2018-02-23T14:18:13.533Z,32.95
2018-02-23T14:20:42.295Z,33.75
2018-02-23T14:23:11.827Z,39.00
2018-02-23T14:25:41.350Z,47.83
2018-02-23T14:28:10.118Z,39.70
2018-02-23T14:30:38.940Z,38.15
2018-02-23T14:33:08.649Z,36.50
2018-02-23T14:35:38.112Z,34.38
2018-02-23T14:38:06.881Z,37.67
2018-02-23T14:40:35.696Z,39.13
2018-02-23T14:43:04.164Z,38.20
2018-02-23T14:45:32.596Z,31.75
2018-02-23T14:48:01.370Z,34.88
2018-02-23T14:50:41.335Z,30.90
2018-02-23T14:53:10.160Z,34.85
2018-02-23T14:55:38.916Z,33.45
2018-02-23T14:58:07.692Z,33.45
2018-02-23T15:00:36.757Z,37.65
2018-02-23T15:03:06.294Z,36.90
2018-02-23T15:05:37.253Z,35.40
2018-02-23T15:08:06.048Z,32.58
2018-02-23T15:10:34.814Z,37.55
2018-02-23T15:13:03.631Z,34.25
2018-02-23T15:15:32.406Z,35.13
2018-02-23T15:18:01.174Z,34.35
2018-02-23T15:20:29.936Z,32.42
2018-02-23T15:22:59.472Z,32.63
2018-02-23T15:25:28.236Z,36.78
2018-02-23T15:27:57.773Z,35.05
2018-02-23T15:30:37.700Z,38.55
2018-02-23T15:33:07.260Z,35.15
2018-02-23T15:35:37.659Z,36.30
2018-02-23T15:38:06.450Z,40.97
2018-02-23T15:40:35.728Z,36.40
2018-02-23T15:43:04.500Z,40.10
2018-02-23T15:45:33.085Z,39.13
2018-02-23T15:48:24.017Z,39.17
2018-02-23T15:50:58.296Z,43.30
2018-02-23T15:53:26.895Z,39.90
2018-02-23T15:55:56.241Z,42.33
2018-02-23T15:58:30.635Z,42.17
2018-02-23T16:00:59.224Z,40.80
2018-02-23T16:03:27.808Z,45.78
2018-02-23T16:05:56.390Z,42.72
2018-02-23T16:08:25.547Z,49.42
2018-02-23T16:10:54.313Z,47.65
2018-02-23T16:13:22.897Z,43.50
2018-02-23T16:15:51.657Z,49.00
2018-02-23T16:18:19.909Z,41.30
2018-02-23T16:20:49.444Z,43.78
2018-02-23T16:23:18.214Z,41.85
2018-02-23T16:25:47.748Z,47.05
2018-02-23T16:28:16.554Z,47.13
2018-02-23T16:30:45.158Z,45.22
2018-02-23T16:33:13.935Z,51.65
2018-02-23T16:35:42.700Z,45.47
2018-02-23T16:38:11.293Z,45.83
2018-02-23T16:40:40.060Z,44.13
2018-02-23T16:43:08.815Z,53.75
2018-02-23T16:45:37.587Z,46.17
2018-02-23T16:48:06.430Z,45.88
2018-02-23T16:50:35.197Z,50.97
2018-02-23T16:53:04.410Z,42.70
2018-02-23T16:55:33.760Z,60.72
2018-02-23T16:58:02.542Z,43.40
2018-02-23T17:00:31.323Z,57.70
2018-02-23T17:03:00.697Z,53.40
2018-02-23T17:05:29.475Z,50.38
2018-02-23T17:07:58.604Z,54.90
2018-02-23T17:10:27.374Z,51.35
2018-02-23T17:12:56.161Z,48.03
2018-02-23T17:15:24.925Z,52.60
2018-02-23T17:17:53.686Z,54.03
2018-02-23T17:20:22.474Z,56.25
2018-02-23T17:22:51.244Z,53.33
2018-02-23T17:25:20.018Z,49.58
2018-02-23T17:27:48.767Z,53.72
2018-02-23T17:30:17.541Z,55.95
2018-02-23T17:32:46.312Z,57.67
2018-02-23T17:35:15.076Z,55.35
2018-02-23T17:37:43.836Z,47.70
2018-02-23T17:40:13.368Z,54.45
2018-02-23T17:42:42.137Z,59.40
2018-02-23T17:45:11.668Z,51.88
2018-02-23T17:47:40.438Z,52.92
2018-02-23T17:50:09.977Z,52.22
2018-02-23T17:52:38.740Z,56.33
2018-02-23T17:55:07.503Z,52.22
2018-02-23T17:57:37.039Z,50.55
2018-02-23T18:00:05.802Z,56.28
2018-02-23T18:02:34.236Z,56.28
2018-02-23T18:05:03.007Z,68.53
2018-02-23T18:07:31.768Z,59.50
2018-02-23T18:10:01.299Z,67.05
2018-02-23T18:12:30.065Z,58.28
2018-02-23T18:14:59.585Z,55.00
2018-02-23T18:17:28.404Z,63.08
2018-02-23T18:19:57.176Z,58.22
2018-02-23T18:22:25.947Z,56.88
2018-02-23T18:24:55.513Z,55.90
2018-02-23T18:27:24.263Z,53.25
2018-02-23T18:29:53.033Z,60.70
2018-02-23T18:32:21.622Z,63.87
2018-02-23T18:34:51.135Z,50.97
2018-02-23T18:37:19.571Z,48.08
2018-02-23T18:39:48.165Z,46.08
2018-02-23T18:42:16.930Z,56.33
2018-02-23T18:44:45.709Z,50.45
2018-02-23T18:47:14.481Z,53.72
2018-02-23T18:49:43.248Z,51.55
2018-02-23T18:52:12.761Z,51.67
2018-02-23T18:54:41.538Z,61.72
2018-02-23T18:57:11.088Z,50.95
2018-02-23T18:59:39.860Z,51.00
2018-02-23T19:02:08.292Z,44.83
2018-02-23T19:04:36.865Z,51.75
2018-02-23T19:07:05.655Z,52.30
2018-02-23T19:09:34.244Z,53.25
2018-02-23T19:12:03.014Z,53.70
2018-02-23T19:14:31.587Z,53.95
2018-02-23T19:17:00.153Z,53.28
2018-02-23T19:19:29.132Z,48.05
2018-02-23T19:21:57.919Z,61.28
2018-02-23T19:24:26.688Z,52.60
2018-02-23T19:26:56.220Z,48.85
2018-02-23T19:29:25.190Z,50.55
2018-02-23T19:31:53.953Z,53.95
2018-02-23T19:34:22.727Z,50.65
2018-02-23T19:36:51.492Z,52.17
2018-02-23T19:39:21.024Z,55.42
2018-02-23T19:41:49.782Z,54.10
2018-02-23T19:44:18.557Z,51.22
2018-02-23T19:46:47.325Z,51.10
2018-02-23T19:49:16.084Z,56.10
2018-02-23T19:51:44.923Z,56.53
2018-02-23T19:54:13.897Z,54.25
2018-02-23T19:56:42.656Z,59.47
2018-02-23T19:59:12.740Z,52.13
2018-02-23T20:01:41.504Z,55.67
2018-02-23T20:04:11.029Z,51.47
2018-02-23T20:06:39.797Z,57.58
2018-02-23T20:09:09.328Z,50.10
2018-02-23T20:11:38.096Z,50.85
2018-02-23T20:14:10.986Z,55.08
2018-02-23T20:16:40.702Z,54.45
2018-02-23T20:19:11.169Z,54.58
2018-02-23T20:21:39.954Z,59.88
2018-02-23T20:24:11.141Z,55.90
2018-02-23T20:26:41.249Z,53.55
2018-02-23T20:29:18.488Z,53.60
2018-02-23T20:31:48.723Z,55.40
2018-02-23T20:34:17.178Z,59.65
2018-02-23T20:36:46.869Z,57.10
2018-02-23T20:39:15.632Z,55.33
2018-02-23T20:41:44.407Z,60.45
2018-02-23T20:44:13.174Z,50.90
2018-02-23T20:46:42.801Z,50.28
2018-02-23T20:49:11.567Z,64.25
2018-02-23T20:51:40.452Z,52.53
2018-02-23T20:54:09.229Z,52.20
2018-02-23T20:56:38.751Z,55.80
2018-02-23T20:59:07.530Z,55.40
2018-02-23T21:01:37.057Z,55.38
2018-02-23T21:04:05.814Z,54.75
2018-02-23T21:06:35.344Z,55.42
2018-02-23T21:09:04.221Z,62.78
2018-02-23T21:11:32.994Z,58.20
2018-02-23T21:14:02.529Z,55.00
2018-02-23T21:16:33.817Z,56.33
2018-02-23T21:19:02.608Z,58.78
2018-02-23T21:21:31.404Z,56.80
2018-02-23T21:24:00.412Z,57.70
2018-02-23T21:26:29.671Z,57.15
2018-02-23T21:29:00.332Z,55.22
2018-02-23T21:31:33.777Z,56.33
2018-02-23T21:34:13.772Z,58.10
2018-02-23T21:36:49.111Z,55.20
2018-02-23T21:39:18.479Z,65.82
2018-02-23T21:42:01.209Z,57.20
2018-02-23T21:44:47.820Z,59.40
2018-02-23T21:47:18.248Z,63.50
2018-02-23T21:49:51.770Z,61.58
2018-02-23T21:54:59.206Z,52.90
2018-02-23T21:57:28.207Z,54.20
2018-02-23T21:59:57.556Z,62.83
2018-02-23T22:02:26.419Z,58.38
2018-02-23T22:04:55.004Z,61.47
2018-02-23T22:07:23.768Z,56.50
2018-02-23T22:09:53.310Z,60.42
2018-02-23T22:12:22.082Z,57.10
2018-02-23T22:14:50.861Z,62.88
2018-02-23T22:17:20.392Z,65.10
2018-02-23T22:19:49.168Z,53.72
2018-02-23T22:22:17.941Z,62.35
2018-02-23T22:24:47.481Z,63.85
2018-02-23T22:27:16.244Z,58.45
2018-02-23T22:29:45.591Z,53.63
2018-02-23T22:32:14.177Z,58.13
2018-02-23T22:34:42.948Z,56.63
2018-02-23T22:37:11.719Z,59.35
2018-02-23T22:39:40.304Z,61.03
2018-02-23T22:42:09.071Z,58.00
2018-02-23T22:44:37.829Z,52.58
2018-02-23T22:47:06.604Z,63.17
2018-02-23T22:49:35.183Z,50.17
2018-02-23T22:52:04.025Z,59.50
2018-02-23T22:54:32.788Z,50.17
2018-02-23T22:57:01.552Z,56.42
2018-02-23T22:59:30.320Z,57.28
2018-02-23T23:01:59.082Z,56.20
2018-02-23T23:04:29.328Z,60.78
2018-02-23T23:06:58.863Z,51.67
2018-02-23T23:09:27.627Z,62.40
2018-02-23T23:11:56.377Z,59.17
2018-02-23T23:14:25.141Z,57.85
2018-02-23T23:16:53.915Z,55.05
2018-02-23T23:19:22.671Z,54.10
2018-02-23T23:21:52.196Z,50.72
2018-02-23T23:24:20.968Z,58.38
2018-02-23T23:26:50.493Z,59.70
2018-02-23T23:29:19.264Z,54.28
2018-02-23T23:31:48.789Z,61.25
2018-02-23T23:34:17.564Z,68.15
2018-02-23T23:36:47.097Z,58.35
2018-02-23T23:39:15.854Z,53.22
2018-02-23T23:41:45.388Z,62.75
2018-02-23T23:44:14.152Z,57.35
2018-02-23T23:46:43.339Z,55.85
2018-02-23T23:49:12.860Z,52.10
2018-02-23T23:51:42.399Z,51.65
2018-02-23T23:54:11.160Z,54.45
2018-02-23T23:56:39.915Z,54.45
2018-02-23T23:59:08.332Z,55.17
